Pomfret Center, CT (06259)

7:23 AM EDT on September 01, 2015 (GMT -0400)
Pomfret School | | Change Station
CLOSE
Current Station
Personal Weather Station
Location: Pomfret, CT
Elevation: 577 ft
Nearby Weather Stations

Elev 577 ft 41.89 °N, 71.97 °W | Updated 5 seconds ago

Clear
Clear
65.5 °F
Feels Like 65.5 °F
N
0.0
Wind Variable Wind from NE
Gusts 1.0 mph

Today
High -- | Low -- °F
--% Chance of Precip.
Yesterday
High -- | Low -- °F
Precip. -- in
6:13 AM 7:21 PM
Waning Gibbous, 89% visible
Pressure 30.03 in
Visibility 5.0 miles
Clouds Clear
Dew Point 63 °F
Humidity 92%
Rainfall 0.00 in
Snow Depth Not available.
UV 0 out of 12
Pollen 9.50 out of 12
Air Quality Not available.
Flu Activity Not available.
METAR KIJD 011052Z AUTO 00000KT 5SM BR CLR 17/15 A3004 RMK AO2 SLP169 T01670150
Pressure 30.03 in
Visibility 5.0 miles
Clouds Clear
Dew Point 63 °F
Humidity 92%
Rainfall 0.00 in
Snow Depth Not available.
UV 0 out of 12
Pollen 9.50 out of 12
Air Quality Not available.
Flu Activity Not available.
METAR KIJD 011052Z AUTO 00000KT 5SM BR CLR 17/15 A3004 RMK AO2 SLP169 T01670150

10-Day Weather Forecast

×

Almanac

Astronomy

Sep. 01, 2015 Rise Set
Actual Time
Civil Twilight
Nautical Twilight
Astronomical Twilight
Moon
Length of Visible Light
Length of Day
Tomorrow will be .
, % of the Moon is Illuminated

Today's Extremes

State Highs State Lows

Community

WunderPhotos

Upload Photos

1,851,501 photos uploaded!

WunderBlogs® & News

Nearby

Air Quality

  Air Quality AQ Index Pollutant
Not available.

Snow Depth

Station Depth Elevation

Earthquake Activity

City Distance Mag. Time & Date
Minimum magnitude displayed is 2.5.

Coastal Water Temperatures

Place Temperature

Stations

Nearby Weather Stations

Station Location Temp. Windchill Dew Point Humidity Wind Precip. Elev Updated Type